createdAt,value
2018-12-14T00:01:27.549Z,82.50
2018-12-14T00:03:56.614Z,82.60
2018-12-14T00:06:25.598Z,82.80
2018-12-14T00:08:54.382Z,82.80
2018-12-14T00:11:23.291Z,82.90
2018-12-14T00:13:52.219Z,82.80
2018-12-14T00:16:21.289Z,82.90
2018-12-14T00:18:50.269Z,83.10
2018-12-14T00:21:19.276Z,83.10
2018-12-14T00:23:48.243Z,83.20
2018-12-14T00:26:17.154Z,83.60
2018-12-14T00:28:46.177Z,83.60
2018-12-14T00:31:15.224Z,83.90
2018-12-14T00:33:44.158Z,83.90
2018-12-14T00:36:13.123Z,84.00
2018-12-14T00:38:42.131Z,84.10
2018-12-14T00:41:11.103Z,84.10
2018-12-14T00:43:40.116Z,84.10
2018-12-14T00:46:09.316Z,84.00
2018-12-14T00:48:38.324Z,83.90
2018-12-14T00:51:07.265Z,83.80
2018-12-14T00:53:36.297Z,83.60
2018-12-14T00:56:05.313Z,83.50
2018-12-14T00:58:34.286Z,83.30
2018-12-14T01:01:03.202Z,83.30
2018-12-14T01:03:32.268Z,83.10
2018-12-14T01:06:01.352Z,82.90
2018-12-14T01:08:30.242Z,83.60
2018-12-14T01:10:59.358Z,82.80
2018-12-14T01:13:28.833Z,82.70
2018-12-14T01:15:57.847Z,82.70
2018-12-14T01:18:26.867Z,82.80
2018-12-14T01:20:56.339Z,82.80
2018-12-14T01:23:25.354Z,82.70
2018-12-14T01:25:54.350Z,82.60
2018-12-14T01:28:23.316Z,82.50
2018-12-14T01:30:52.356Z,82.50
2018-12-14T01:33:21.308Z,82.50
2018-12-14T01:35:50.280Z,82.30
2018-12-14T01:38:19.680Z,82.20
2018-12-14T01:40:48.629Z,82.20
2018-12-14T01:43:17.682Z,82.20
2018-12-14T01:45:46.643Z,82.10
2018-12-14T01:48:15.503Z,82.30
2018-12-14T01:50:44.482Z,82.00
2018-12-14T01:53:13.473Z,82.00
2018-12-14T01:55:42.446Z,82.00
2018-12-14T01:58:11.450Z,82.00
2018-12-14T02:00:40.614Z,82.00
2018-12-14T02:03:09.725Z,81.90
2018-12-14T02:05:38.636Z,82.00
2018-12-14T02:08:07.720Z,82.00
2018-12-14T02:10:36.715Z,82.00
2018-12-14T02:13:05.601Z,82.00
2018-12-14T02:15:34.828Z,81.90
2018-12-14T02:18:03.845Z,82.00
2018-12-14T02:20:32.908Z,81.90
2018-12-14T02:23:01.991Z,81.90
2018-12-14T02:25:30.874Z,82.60
2018-12-14T02:27:59.882Z,81.80
2018-12-14T02:30:40.690Z,81.80
2018-12-14T02:33:09.755Z,81.80
2018-12-14T02:35:38.742Z,81.80
2018-12-14T02:38:07.875Z,81.60
2018-12-14T02:40:36.852Z,81.60
2018-12-14T02:43:05.923Z,81.70
2018-12-14T02:45:35.034Z,81.70
2018-12-14T02:48:04.001Z,81.60
2018-12-14T02:50:32.928Z,81.90
2018-12-14T02:53:01.923Z,81.80
2018-12-14T02:55:31.005Z,81.70
2018-12-14T02:58:00.005Z,81.70
2018-12-14T03:00:29.138Z,81.70
2018-12-14T03:02:58.286Z,81.60
2018-12-14T03:05:27.363Z,81.80
2018-12-14T03:07:56.263Z,81.70
2018-12-14T03:10:25.247Z,81.80
2018-12-14T03:12:54.156Z,81.90
2018-12-14T03:15:23.149Z,82.00
2018-12-14T03:17:52.147Z,82.80
2018-12-14T03:20:21.145Z,82.00
2018-12-14T03:22:50.145Z,82.00
2018-12-14T03:25:19.176Z,82.10
2018-12-14T03:27:48.225Z,82.10
2018-12-14T03:30:17.193Z,81.90
2018-12-14T03:32:46.105Z,81.90
2018-12-14T03:35:15.078Z,82.10
2018-12-14T03:37:44.000Z,82.10
2018-12-14T03:40:13.277Z,82.30
2018-12-14T03:42:42.267Z,82.40
2018-12-14T03:45:11.364Z,82.50
2018-12-14T03:47:40.251Z,82.50
2018-12-14T03:50:09.253Z,82.70
2018-12-14T03:52:38.240Z,82.80
2018-12-14T03:55:07.445Z,82.90
2018-12-14T03:57:36.366Z,83.00
2018-12-14T04:00:06.658Z,83.10
2018-12-14T04:02:36.155Z,82.90
2018-12-14T04:05:05.556Z,82.70
2018-12-14T04:07:34.442Z,82.90
2018-12-14T04:10:03.658Z,83.00
2018-12-14T04:12:32.541Z,82.90
2018-12-14T04:15:01.447Z,82.90
2018-12-14T04:17:30.539Z,82.90
2018-12-14T04:19:59.428Z,83.60
2018-12-14T04:22:28.432Z,83.00
2018-12-14T04:24:57.294Z,83.00
2018-12-14T04:27:26.195Z,83.00
2018-12-14T04:29:55.192Z,82.90
2018-12-14T04:32:24.083Z,83.00
2018-12-14T04:34:52.999Z,82.90
2018-12-14T04:37:22.046Z,82.80
2018-12-14T04:39:50.989Z,82.80
2018-12-14T04:42:19.974Z,82.70
2018-12-14T04:44:48.832Z,82.60
2018-12-14T04:47:18.054Z,82.50
2018-12-14T04:49:47.180Z,82.50
2018-12-14T04:52:16.237Z,82.60
2018-12-14T04:54:45.169Z,82.50
2018-12-14T04:57:14.149Z,82.50
2018-12-14T04:59:43.235Z,82.60
2018-12-14T05:02:12.331Z,82.70
2018-12-14T05:04:41.236Z,82.80
2018-12-14T05:07:10.305Z,83.00
2018-12-14T05:09:39.297Z,83.00
2018-12-14T05:12:08.287Z,83.00
2018-12-14T05:14:37.184Z,82.90
2018-12-14T05:17:06.278Z,82.90
2018-12-14T05:19:35.185Z,82.80
2018-12-14T05:22:04.516Z,82.80
2018-12-14T05:24:33.443Z,82.90
2018-12-14T05:27:02.700Z,83.10
2018-12-14T05:29:31.653Z,83.10
2018-12-14T05:32:00.714Z,83.30
2018-12-14T05:34:29.639Z,83.50
2018-12-14T05:36:58.711Z,83.70
2018-12-14T05:39:27.644Z,83.60
2018-12-14T05:41:56.726Z,83.60
2018-12-14T05:44:25.641Z,83.40
2018-12-14T05:46:54.596Z,83.40
2018-12-14T05:49:23.519Z,83.50
2018-12-14T05:51:52.375Z,83.50
2018-12-14T05:54:21.321Z,83.50
2018-12-14T05:56:50.421Z,83.80
2018-12-14T05:59:19.324Z,83.50
2018-12-14T06:01:48.364Z,83.50
2018-12-14T06:04:17.293Z,83.40
2018-12-14T06:06:46.608Z,83.40
2018-12-14T06:09:15.722Z,83.50
2018-12-14T06:11:44.633Z,83.60
2018-12-14T06:14:13.522Z,83.90
2018-12-14T06:16:42.428Z,84.10
2018-12-14T06:19:11.408Z,85.00
2018-12-14T06:21:40.369Z,84.30
2018-12-14T06:24:09.313Z,84.30
2018-12-14T06:26:38.288Z,84.30
2018-12-14T06:29:07.189Z,84.20
2018-12-14T06:31:36.215Z,84.20
2018-12-14T06:34:05.088Z,84.10
2018-12-14T06:36:34.063Z,84.20
2018-12-14T06:39:04.296Z,84.20
2018-12-14T06:41:33.324Z,84.90
2018-12-14T06:44:02.280Z,84.20
2018-12-14T06:46:31.323Z,84.20
2018-12-14T06:49:00.365Z,84.30
2018-12-14T06:51:29.390Z,84.30
2018-12-14T06:53:58.345Z,84.40
2018-12-14T06:56:27.334Z,84.40
2018-12-14T06:58:56.256Z,84.40
2018-12-14T07:01:25.248Z,84.30
2018-12-14T07:03:54.440Z,84.30
2018-12-14T07:06:23.457Z,84.30
2018-12-14T07:08:52.430Z,84.30
2018-12-14T07:11:21.424Z,84.30
2018-12-14T07:13:50.401Z,84.40
2018-12-14T07:16:19.634Z,84.50
2018-12-14T07:18:48.797Z,84.50
2018-12-14T07:21:17.914Z,84.70
2018-12-14T07:23:47.003Z,84.60
2018-12-14T07:26:16.083Z,84.50
2018-12-14T07:28:45.019Z,84.50
2018-12-14T07:31:13.981Z,84.50
2018-12-14T07:33:43.212Z,84.40
2018-12-14T07:36:12.178Z,84.40
2018-12-14T07:38:41.156Z,84.40
2018-12-14T07:41:10.186Z,84.60
2018-12-14T07:43:39.335Z,84.70
2018-12-14T07:46:08.476Z,84.70
2018-12-14T07:48:37.435Z,84.80
2018-12-14T07:51:06.521Z,84.70
2018-12-14T07:53:35.365Z,84.70
2018-12-14T07:56:04.341Z,84.70
2018-12-14T07:58:33.225Z,84.50
2018-12-14T08:01:02.318Z,84.50
2018-12-14T08:03:31.298Z,84.50
2018-12-14T08:06:00.029Z,84.50
2018-12-14T08:08:29.035Z,84.40
2018-12-14T08:10:57.880Z,84.40
2018-12-14T08:13:26.953Z,84.40
2018-12-14T08:15:55.893Z,84.50
2018-12-14T08:18:24.742Z,84.50
2018-12-14T08:20:53.656Z,84.50
2018-12-14T08:23:22.629Z,84.70
2018-12-14T08:25:51.519Z,84.70
2018-12-14T08:28:20.688Z,84.80
2018-12-14T08:30:49.798Z,84.80
2018-12-14T08:33:18.695Z,85.90
2018-12-14T08:35:47.612Z,86.20
2018-12-14T08:38:16.809Z,85.20
2018-12-14T08:40:45.813Z,85.00
2018-12-14T08:43:15.109Z,85.10
2018-12-14T08:45:44.221Z,85.10
2018-12-14T08:48:13.320Z,85.00
2018-12-14T08:50:42.442Z,85.10
2018-12-14T08:53:11.703Z,85.20
2018-12-14T08:55:40.801Z,85.10
2018-12-14T08:58:09.782Z,85.10
2018-12-14T09:00:38.741Z,85.10
2018-12-14T09:03:07.666Z,85.20
2018-12-14T09:05:36.650Z,85.20
2018-12-14T09:08:05.866Z,85.20
2018-12-14T09:10:34.928Z,85.10
2018-12-14T09:13:04.025Z,85.10
2018-12-14T09:15:32.935Z,85.20
2018-12-14T09:18:01.907Z,85.00
2018-12-14T09:20:30.934Z,84.90
2018-12-14T09:23:00.235Z,84.80
2018-12-14T09:25:29.219Z,84.70
2018-12-14T09:27:58.103Z,84.40
2018-12-14T09:30:27.121Z,84.30
2018-12-14T09:32:56.098Z,84.10
2018-12-14T09:35:25.066Z,84.00
2018-12-14T09:37:54.072Z,83.90
2018-12-14T09:40:23.198Z,83.80
2018-12-14T09:42:52.155Z,83.70
2018-12-14T09:45:21.057Z,83.70
2018-12-14T09:47:50.058Z,84.10
2018-12-14T09:50:18.952Z,84.20
2018-12-14T09:52:47.924Z,83.60
2018-12-14T09:55:16.807Z,83.30
2018-12-14T09:57:45.705Z,83.30
2018-12-14T10:00:14.699Z,83.30
2018-12-14T10:02:43.714Z,83.30
2018-12-14T10:05:12.792Z,83.20
2018-12-14T10:07:46.823Z,83.20
2018-12-14T10:10:12.973Z,83.60
2018-12-14T10:12:41.938Z,83.70
2018-12-14T10:15:10.941Z,83.70
2018-12-14T10:17:39.927Z,83.80
2018-12-14T10:20:10.125Z,83.90
2018-12-14T10:22:41.622Z,84.00
2018-12-14T10:25:10.189Z,84.00
2018-12-14T10:27:39.189Z,83.90
2018-12-14T10:30:08.621Z,84.40
2018-12-14T10:32:37.356Z,83.70
2018-12-14T10:35:07.622Z,83.70
2018-12-14T10:37:36.374Z,83.70
2018-12-14T10:40:06.044Z,83.60
2018-12-14T10:42:35.071Z,83.60
2018-12-14T10:45:04.269Z,83.70
2018-12-14T10:47:33.286Z,83.60
2018-12-14T10:50:02.234Z,83.50
2018-12-14T10:52:31.158Z,83.50
2018-12-14T10:55:00.303Z,83.40
2018-12-14T10:57:29.244Z,83.20
2018-12-14T10:59:58.239Z,83.10
2018-12-14T11:02:27.225Z,83.00
2018-12-14T11:04:56.095Z,82.80
2018-12-14T11:07:25.004Z,82.70
2018-12-14T11:09:53.908Z,82.50
2018-12-14T11:12:22.884Z,82.40
2018-12-14T11:14:51.789Z,82.20
2018-12-14T11:17:20.755Z,82.40
2018-12-14T11:19:49.764Z,82.40
2018-12-14T11:22:18.677Z,82.20
2018-12-14T11:24:47.655Z,82.00
2018-12-14T11:27:16.648Z,81.90
2018-12-14T11:29:45.626Z,82.00
2018-12-14T11:32:14.542Z,81.90
2018-12-14T11:34:43.663Z,81.80
2018-12-14T11:37:12.658Z,81.90
2018-12-14T11:39:41.648Z,81.70
2018-12-14T11:42:10.645Z,81.80
2018-12-14T11:44:39.833Z,81.70
2018-12-14T11:47:08.802Z,81.50
2018-12-14T11:49:37.902Z,81.60
2018-12-14T11:52:07.093Z,81.50
2018-12-14T11:54:36.125Z,81.50
2018-12-14T11:57:05.099Z,81.40
2018-12-14T11:59:34.226Z,81.40
2018-12-14T12:02:03.191Z,81.40
2018-12-14T12:04:32.173Z,81.00
2018-12-14T12:07:01.252Z,81.20
2018-12-14T12:09:30.250Z,81.00
2018-12-14T12:11:59.263Z,80.80
2018-12-14T12:14:28.341Z,80.80
2018-12-14T12:16:57.426Z,80.70
2018-12-14T12:19:26.317Z,80.80
2018-12-14T12:21:55.438Z,80.40
2018-12-14T12:24:24.453Z,80.60
2018-12-14T12:26:53.490Z,80.50
2018-12-14T12:29:22.423Z,80.40
2018-12-14T12:31:51.338Z,81.20
2018-12-14T12:34:20.294Z,80.20
2018-12-14T12:36:49.178Z,80.20
2018-12-14T12:39:18.190Z,79.80
2018-12-14T12:41:47.163Z,79.80
2018-12-14T12:44:16.041Z,79.80
2018-12-14T12:46:44.953Z,79.50
2018-12-14T12:49:14.163Z,79.70
2018-12-14T12:51:43.389Z,79.40
2018-12-14T12:54:12.341Z,79.40
2018-12-14T12:56:41.443Z,79.10
2018-12-14T12:59:10.326Z,79.10
2018-12-14T13:01:39.443Z,79.10
2018-12-14T13:04:08.425Z,78.80
2018-12-14T13:06:37.415Z,78.70
2018-12-14T13:09:07.531Z,78.40
2018-12-14T13:11:36.513Z,78.70
2018-12-14T13:14:05.641Z,78.10
2018-12-14T13:16:34.708Z,79.40
2018-12-14T13:19:03.754Z,78.10
2018-12-14T13:21:32.819Z,78.00
2018-12-14T13:24:01.783Z,77.10
2018-12-14T13:26:30.806Z,77.50
2018-12-14T13:28:59.880Z,77.40
2018-12-14T13:31:28.852Z,77.10
2018-12-14T13:33:57.880Z,77.60
2018-12-14T13:36:26.966Z,77.30
2018-12-14T13:38:55.978Z,77.00
2018-12-14T13:41:24.984Z,76.80
2018-12-14T13:43:53.936Z,77.10
2018-12-14T13:46:22.950Z,76.40
2018-12-14T13:48:51.817Z,77.20
2018-12-14T13:51:20.850Z,77.10
2018-12-14T13:53:50.058Z,77.20
2018-12-14T13:56:19.031Z,76.60
2018-12-14T13:58:48.118Z,76.40
2018-12-14T14:01:17.466Z,77.10
2018-12-14T14:03:46.441Z,76.70
2018-12-14T14:06:15.554Z,76.80
2018-12-14T14:08:44.645Z,76.80
2018-12-14T14:11:13.701Z,76.60
2018-12-14T14:13:42.709Z,76.60
2018-12-14T14:16:11.698Z,76.20
2018-12-14T14:18:40.890Z,76.80
2018-12-14T14:21:09.899Z,76.70
2018-12-14T14:23:38.895Z,76.40
2018-12-14T14:26:07.849Z,76.20
2018-12-14T14:28:36.866Z,76.70
2018-12-14T14:31:05.870Z,76.70
2018-12-14T14:33:34.839Z,76.30
2018-12-14T14:36:03.959Z,76.70
2018-12-14T14:38:32.914Z,77.40
2018-12-14T14:41:01.933Z,76.60
2018-12-14T14:43:30.830Z,76.40
2018-12-14T14:45:59.886Z,76.70
2018-12-14T14:48:28.807Z,77.40
2018-12-14T14:50:57.694Z,76.80
2018-12-14T14:53:26.694Z,76.40
2018-12-14T14:55:55.661Z,76.80
2018-12-14T14:58:24.590Z,77.10
2018-12-14T15:00:53.589Z,77.10
2018-12-14T15:03:22.703Z,77.10
2018-12-14T15:05:51.676Z,77.00
2018-12-14T15:08:20.722Z,77.20
2018-12-14T15:10:49.769Z,77.50
2018-12-14T15:13:18.628Z,77.10
2018-12-14T15:15:47.549Z,77.10
2018-12-14T15:18:16.623Z,77.20
2018-12-14T15:20:45.579Z,77.20
2018-12-14T15:23:14.463Z,77.10
2018-12-14T15:25:43.403Z,77.40
2018-12-14T15:28:12.468Z,77.40
2018-12-14T15:30:41.360Z,78.00
2018-12-14T15:33:10.277Z,77.80
2018-12-14T15:35:39.245Z,77.40
2018-12-14T15:38:08.048Z,77.80
2018-12-14T15:40:36.978Z,77.70
2018-12-14T15:43:05.930Z,77.60
2018-12-14T15:45:34.823Z,77.70
2018-12-14T15:48:03.856Z,78.50
2018-12-14T15:50:32.891Z,77.60
2018-12-14T15:53:01.836Z,77.80
2018-12-14T15:55:31.018Z,77.70
2018-12-14T15:57:59.998Z,77.70
2018-12-14T16:00:29.001Z,77.70
2018-12-14T16:05:45.242Z,77.90
2018-12-14T16:08:14.239Z,77.60
2018-12-14T16:10:43.192Z,77.60
2018-12-14T16:13:12.183Z,77.90
2018-12-14T16:15:41.193Z,77.90
2018-12-14T16:18:10.295Z,77.90
2018-12-14T16:20:39.304Z,78.10
2018-12-14T16:23:08.359Z,78.10
2018-12-14T16:25:37.310Z,78.10
2018-12-14T16:28:06.230Z,78.10
2018-12-14T16:30:35.155Z,78.20
2018-12-14T16:33:04.154Z,79.00
2018-12-14T16:35:33.274Z,78.10
2018-12-14T16:38:02.363Z,78.30
2018-12-14T16:40:31.316Z,78.60
2018-12-14T16:43:00.185Z,78.30
2018-12-14T16:45:29.232Z,78.50
2018-12-14T16:47:58.229Z,78.80
2018-12-14T16:50:27.310Z,78.70
2018-12-14T16:52:56.280Z,78.60
2018-12-14T16:55:25.423Z,78.50
2018-12-14T16:57:54.512Z,78.50
2018-12-14T17:00:23.587Z,78.50
2018-12-14T17:02:52.714Z,78.50
2018-12-14T17:05:21.775Z,78.60
2018-12-14T17:07:50.898Z,78.60
2018-12-14T17:10:20.081Z,78.70
2018-12-14T17:12:49.291Z,78.70
2018-12-14T17:15:18.275Z,78.70
2018-12-14T17:17:47.461Z,78.70
2018-12-14T17:20:16.449Z,78.90
2018-12-14T17:22:45.398Z,79.00
2018-12-14T17:25:14.320Z,78.90
2018-12-14T17:27:43.544Z,78.90
2018-12-14T17:30:12.368Z,79.00
2018-12-14T17:32:41.230Z,79.00
2018-12-14T17:35:10.396Z,79.10
2018-12-14T17:37:39.393Z,79.20
2018-12-14T17:40:08.609Z,79.30
2018-12-14T17:42:37.601Z,79.30
2018-12-14T17:45:06.783Z,79.30
2018-12-14T17:47:35.877Z,79.50
2018-12-14T17:50:05.594Z,79.40
2018-12-14T17:52:34.702Z,79.60
2018-12-14T17:55:03.919Z,79.50
2018-12-14T17:57:32.921Z,79.50
2018-12-14T18:00:01.911Z,79.30
2018-12-14T18:02:30.983Z,79.40
2018-12-14T18:05:00.044Z,79.30
2018-12-14T18:07:28.985Z,79.30
2018-12-14T18:09:57.987Z,79.30
2018-12-14T18:12:27.057Z,79.20
2018-12-14T18:14:55.893Z,79.30
2018-12-14T18:17:24.783Z,79.10
2018-12-14T18:19:53.725Z,79.00
2018-12-14T18:22:23.057Z,78.90
2018-12-14T18:24:52.121Z,78.80
2018-12-14T18:27:21.360Z,78.90
2018-12-14T18:29:50.442Z,78.90
2018-12-14T18:32:19.440Z,78.90
2018-12-14T18:34:48.498Z,79.00
2018-12-14T18:37:17.610Z,78.60
2018-12-14T18:39:46.624Z,78.70
2018-12-14T18:42:15.702Z,78.70
2018-12-14T18:44:44.889Z,78.80
2018-12-14T18:47:14.011Z,78.70
2018-12-14T18:49:43.003Z,78.80
2018-12-14T18:52:11.989Z,78.60
2018-12-14T18:54:41.089Z,78.70
2018-12-14T18:57:10.301Z,78.70
2018-12-14T18:59:39.168Z,78.70
2018-12-14T19:02:08.254Z,78.60
2018-12-14T19:04:37.277Z,78.50
2018-12-14T19:07:06.368Z,78.80
2018-12-14T19:09:35.902Z,78.50
2018-12-14T19:12:04.937Z,78.60
2018-12-14T19:14:34.024Z,78.50
2018-12-14T19:17:03.182Z,78.60
2018-12-14T19:19:32.238Z,78.60
2018-12-14T19:22:01.224Z,78.50
2018-12-14T19:24:30.335Z,78.70
2018-12-14T19:26:59.438Z,78.60
2018-12-14T19:29:28.520Z,78.50
2018-12-14T19:31:57.613Z,78.30
2018-12-14T19:34:31.421Z,78.30
2018-12-14T19:36:57.545Z,78.40
2018-12-14T19:39:26.829Z,79.10
2018-12-14T19:41:55.955Z,78.40
2018-12-14T19:44:25.131Z,78.20
2018-12-14T19:46:54.138Z,78.10
2018-12-14T19:49:23.687Z,78.10
2018-12-14T19:51:53.246Z,78.10
2018-12-14T19:54:22.646Z,78.40
2018-12-14T19:56:51.980Z,77.80
2018-12-14T19:59:21.175Z,77.90
2018-12-14T20:01:50.249Z,78.00
2018-12-14T20:04:19.338Z,77.90
2018-12-14T20:06:48.357Z,78.10
2018-12-14T20:09:17.602Z,78.00
2018-12-14T20:11:46.645Z,78.10
2018-12-14T20:14:15.631Z,78.30
2018-12-14T20:16:44.722Z,77.70
2018-12-14T20:19:13.722Z,77.80
2018-12-14T20:21:42.709Z,78.00
2018-12-14T20:24:11.689Z,77.70
2018-12-14T20:26:40.641Z,77.70
2018-12-14T20:29:09.553Z,77.70
2018-12-14T20:31:38.601Z,77.50
2018-12-14T20:34:07.578Z,77.50
2018-12-14T20:36:36.481Z,77.40
2018-12-14T20:39:07.410Z,77.70
2018-12-14T20:41:36.599Z,77.60
2018-12-14T20:44:05.816Z,77.20
2018-12-14T20:46:34.802Z,77.40
2018-12-14T20:49:03.910Z,77.30
2018-12-14T20:51:32.961Z,77.20
2018-12-14T20:54:01.881Z,77.00
2018-12-14T20:56:30.734Z,76.60
2018-12-14T20:58:59.850Z,76.90
2018-12-14T21:01:29.088Z,76.90
2018-12-14T21:03:58.286Z,77.00
2018-12-14T21:06:27.180Z,76.60
2018-12-14T21:08:56.265Z,76.60
2018-12-14T21:11:25.213Z,76.30
2018-12-14T21:13:54.231Z,75.80
2018-12-14T21:16:26.126Z,75.80
2018-12-14T21:18:54.601Z,75.70
2018-12-14T21:21:23.432Z,75.60
2018-12-14T21:23:52.653Z,75.30
2018-12-14T21:26:21.738Z,75.00
2018-12-14T21:28:50.728Z,75.50
2018-12-14T21:31:19.661Z,75.50
2018-12-14T21:33:48.721Z,75.30
2018-12-14T21:36:17.848Z,75.60
2018-12-14T21:38:46.909Z,75.90
2018-12-14T21:41:15.945Z,75.80
2018-12-14T21:43:45.001Z,75.40
2018-12-14T21:46:14.113Z,75.70
2018-12-14T21:48:43.227Z,75.50
2018-12-14T21:51:12.319Z,75.60
2018-12-14T21:53:41.375Z,75.40
2018-12-14T21:56:10.410Z,75.50
2018-12-14T21:58:39.382Z,74.80
2018-12-14T22:01:08.591Z,75.00
2018-12-14T22:03:37.553Z,74.90
2018-12-14T22:06:06.842Z,74.40
2018-12-14T22:08:35.874Z,74.30
2018-12-14T22:11:05.067Z,74.20
2018-12-14T22:13:34.112Z,73.80
2018-12-14T22:16:03.028Z,73.80
2018-12-14T22:18:32.041Z,73.70
2018-12-14T22:21:01.188Z,74.00
2018-12-14T22:23:30.133Z,74.00
2018-12-14T22:25:59.213Z,73.40
2018-12-14T22:28:28.137Z,73.30
2018-12-14T22:30:57.238Z,73.20
2018-12-14T22:33:26.297Z,73.70
2018-12-14T22:35:55.299Z,73.70
2018-12-14T22:38:24.298Z,73.70
2018-12-14T22:40:53.729Z,73.70
2018-12-14T22:43:22.782Z,72.80
2018-12-14T22:45:51.676Z,73.20
2018-12-14T22:48:20.750Z,73.60
2018-12-14T22:50:49.760Z,73.70
2018-12-14T22:53:18.695Z,73.60
2018-12-14T22:55:47.747Z,73.20
2018-12-14T22:58:16.798Z,73.60
2018-12-14T23:00:51.351Z,73.50
2018-12-14T23:03:20.589Z,73.50
2018-12-14T23:05:50.166Z,73.50
2018-12-14T23:08:19.120Z,73.00
2018-12-14T23:10:48.206Z,73.40
2018-12-14T23:13:17.254Z,72.90
2018-12-14T23:15:46.163Z,72.20
2018-12-14T23:18:15.171Z,73.00
2018-12-14T23:20:44.262Z,73.10
2018-12-14T23:23:13.391Z,73.30
2018-12-14T23:25:42.459Z,72.00
2018-12-14T23:28:11.544Z,72.20
2018-12-14T23:30:40.495Z,72.00
2018-12-14T23:33:09.615Z,72.20
2018-12-14T23:35:38.895Z,72.50
2018-12-14T23:38:08.103Z,72.10
2018-12-14T23:40:37.033Z,71.60
2018-12-14T23:43:07.162Z,71.70
2018-12-14T23:45:36.165Z,72.10
2018-12-14T23:48:05.645Z,72.10
2018-12-14T23:50:34.775Z,71.80
2018-12-14T23:53:03.882Z,72.00
2018-12-14T23:55:33.028Z,72.20
2018-12-14T23:58:02.232Z,72.60
